METAR Data
IDs: Format: Raw Decoded Include TAF

Data at: 1234 UTC 26 Feb 2021

EKRK 261220Z AUTO 29022KT 9999 BKN022/// 08/03 Q1025